Cusseta, Georgia
Current Conditions -  °F | °C
As of 3:58 PM on Friday 28 Nov 2014 (Local Time) from KLSF Reporting Station
Clear Clear  
Wind Chill: 53°   Ceiling: Unl
Heat Index: 53°   Visibility: 10mi
Dew Point: 20°   Wind: 3mph
Humidity: 27%   Direction: 300°WNW
Pressure: 30.31"   Gusts: NA
Location:  32.31°N, 84.77°W
Report Text: KLSF 282058Z AUTO 30003KT 10SM CLR 12/M07 A3031 RMK AO2 SLP268 T01191067 57018
Loading
Personal Weather Stations






























Interactive Weather Map New forecast layout! Learn more

10-Day Weather Forecast

Advertisements
Track Severe Weather on mobile